sensor_id;sensor_type;location;lat;lon;timestamp;pressure;altitude;pressure_sealevel;temperature;humidity
12969;BME280;6549;53.128;8.182;2023-05-12T00:02:46;101468.66;;;12.59;100.00
12969;BME280;6549;53.128;8.182;2023-05-12T00:05:46;101474.16;;;12.56;100.00
12969;BME280;6549;53.128;8.182;2023-05-12T00:08:46;101469.81;;;12.55;100.00
12969;BME280;6549;53.128;8.182;2023-05-12T00:11:47;101467.03;;;12.51;100.00
12969;BME280;6549;53.128;8.182;2023-05-12T00:14:48;101463.88;;;12.53;100.00
12969;BME280;6549;53.128;8.182;2023-05-12T00:17:48;101473.72;;;12.54;100.00
12969;BME280;6549;53.128;8.182;2023-05-12T00:20:49;101473.34;;;12.55;100.00
12969;BME280;6549;53.128;8.182;2023-05-12T00:23:50;101470.16;;;12.53;100.00
12969;BME280;6549;53.128;8.182;2023-05-12T00:26:50;101479.66;;;12.56;100.00
12969;BME280;6549;53.128;8.182;2023-05-12T00:29:51;101483.97;;;12.57;100.00
12969;BME280;6549;53.128;8.182;2023-05-12T00:32:51;101487.94;;;12.56;100.00
12969;BME280;6549;53.128;8.182;2023-05-12T00:35:51;101486.31;;;12.51;100.00
12969;BME280;6549;53.128;8.182;2023-05-12T00:38:51;101484.31;;;12.48;100.00
12969;BME280;6549;53.128;8.182;2023-05-12T00:41:57;101483.97;;;12.53;100.00
12969;BME280;6549;53.128;8.182;2023-05-12T00:44:57;101473.69;;;12.47;100.00
12969;BME280;6549;53.128;8.182;2023-05-12T00:47:57;101477.16;;;12.44;100.00
12969;BME280;6549;53.128;8.182;2023-05-12T00:50:59;101475.47;;;12.29;100.00
12969;BME280;6549;53.128;8.182;2023-05-12T00:54:00;101486.03;;;12.23;100.00
12969;BME280;6549;53.128;8.182;2023-05-12T00:57:01;101485.19;;;12.15;100.00
12969;BME280;6549;53.128;8.182;2023-05-12T01:00:02;101482.78;;;12.10;100.00
12969;BME280;6549;53.128;8.182;2023-05-12T01:03:03;101488.63;;;12.05;100.00
12969;BME280;6549;53.128;8.182;2023-05-12T01:09:05;101491.66;;;11.97;100.00
12969;BME280;6549;53.128;8.182;2023-05-12T01:12:05;101487.63;;;11.87;100.00
12969;BME280;6549;53.128;8.182;2023-05-12T01:15:06;101497.75;;;11.76;100.00
12969;BME280;6549;53.128;8.182;2023-05-12T01:18:08;101502.50;;;11.79;100.00
12969;BME280;6549;53.128;8.182;2023-05-12T01:21:10;101500.69;;;11.64;100.00
12969;BME280;6549;53.128;8.182;2023-05-12T01:24:10;101488.44;;;11.58;100.00
12969;BME280;6549;53.128;8.182;2023-05-12T01:27:12;101490.31;;;11.50;100.00
12969;BME280;6549;53.128;8.182;2023-05-12T01:30:16;101492.16;;;11.43;100.00
12969;BME280;6549;53.128;8.182;2023-05-12T01:33:17;101496.03;;;11.38;100.00
12969;BME280;6549;53.128;8.182;2023-05-12T01:36:17;101498.34;;;11.33;100.00
12969;BME280;6549;53.128;8.182;2023-05-12T01:39:17;101497.06;;;11.26;100.00
12969;BME280;6549;53.128;8.182;2023-05-12T01:42:18;101497.81;;;11.23;100.00
12969;BME280;6549;53.128;8.182;2023-05-12T01:45:18;101500.50;;;11.20;100.00
12969;BME280;6549;53.128;8.182;2023-05-12T01:48:19;101498.00;;;11.11;100.00
12969;BME280;6549;53.128;8.182;2023-05-12T01:51:19;101487.34;;;11.06;100.00
12969;BME280;6549;53.128;8.182;2023-05-12T01:54:19;101504.53;;;11.00;100.00
12969;BME280;6549;53.128;8.182;2023-05-12T01:57:20;101502.41;;;10.90;100.00
12969;BME280;6549;53.128;8.182;2023-05-12T02:00:20;101506.19;;;10.81;100.00
12969;BME280;6549;53.128;8.182;2023-05-12T02:03:20;101503.75;;;10.76;100.00
12969;BME280;6549;53.128;8.182;2023-05-12T02:06:21;101514.28;;;10.71;100.00
12969;BME280;6549;53.128;8.182;2023-05-12T02:09:21;101514.97;;;10.64;100.00
12969;BME280;6549;53.128;8.182;2023-05-12T02:12:22;101513.31;;;10.60;100.00
12969;BME280;6549;53.128;8.182;2023-05-12T02:15:22;101517.16;;;10.55;100.00
12969;BME280;6549;53.128;8.182;2023-05-12T02:18:22;101527.28;;;10.51;100.00
12969;BME280;6549;53.128;8.182;2023-05-12T02:21:23;101522.72;;;10.59;100.00
12969;BME280;6549;53.128;8.182;2023-05-12T02:24:23;101520.03;;;10.40;100.00
12969;BME280;6549;53.128;8.182;2023-05-12T02:27:23;101519.88;;;10.32;100.00
12969;BME280;6549;53.128;8.182;2023-05-12T02:30:24;101522.56;;;10.29;100.00
12969;BME280;6549;53.128;8.182;2023-05-12T02:33:24;101521.94;;;10.35;100.00
12969;BME280;6549;53.128;8.182;2023-05-12T02:36:25;101511.25;;;10.30;100.00
12969;BME280;6549;53.128;8.182;2023-05-12T02:39:26;101510.28;;;10.23;100.00
12969;BME280;6549;53.128;8.182;2023-05-12T02:42:26;101515.72;;;10.19;100.00
12969;BME280;6549;53.128;8.182;2023-05-12T02:45:30;101517.25;;;10.17;100.00
12969;BME280;6549;53.128;8.182;2023-05-12T02:48:30;101516.00;;;10.14;100.00
12969;BME280;6549;53.128;8.182;2023-05-12T02:51:30;101518.81;;;10.18;100.00
12969;BME280;6549;53.128;8.182;2023-05-12T02:54:31;101514.22;;;10.22;100.00
12969;BME280;6549;53.128;8.182;2023-05-12T02:57:31;101517.44;;;10.27;100.00
12969;BME280;6549;53.128;8.182;2023-05-12T03:00:33;101512.81;;;10.31;100.00
12969;BME280;6549;53.128;8.182;2023-05-12T03:03:33;101504.56;;;10.31;100.00
12969;BME280;6549;53.128;8.182;2023-05-12T03:06:33;101510.50;;;10.33;100.00
12969;BME280;6549;53.128;8.182;2023-05-12T03:09:33;101513.69;;;10.35;100.00
12969;BME280;6549;53.128;8.182;2023-05-12T03:12:34;101515.25;;;10.36;100.00
12969;BME280;6549;53.128;8.182;2023-05-12T03:15:34;101520.69;;;10.33;100.00
12969;BME280;6549;53.128;8.182;2023-05-12T03:18:35;101532.84;;;10.32;100.00
12969;BME280;6549;53.128;8.182;2023-05-12T03:21:36;101530.47;;;10.30;100.00
12969;BME280;6549;53.128;8.182;2023-05-12T03:24:36;101529.28;;;10.31;100.00
12969;BME280;6549;53.128;8.182;2023-05-12T03:27:36;101531.31;;;10.34;100.00
12969;BME280;6549;53.128;8.182;2023-05-12T03:30:37;101536.53;;;10.40;100.00
12969;BME280;6549;53.128;8.182;2023-05-12T03:33:37;101519.59;;;10.38;100.00
12969;BME280;6549;53.128;8.182;2023-05-12T03:36:37;101533.88;;;10.47;100.00
12969;BME280;6549;53.128;8.182;2023-05-12T03:39:38;101513.84;;;10.46;100.00
12969;BME280;6549;53.128;8.182;2023-05-12T03:42:38;101517.41;;;10.47;100.00
12969;BME280;6549;53.128;8.182;2023-05-12T03:45:38;101518.63;;;10.49;100.00
12969;BME280;6549;53.128;8.182;2023-05-12T03:48:39;101525.03;;;10.57;100.00
12969;BME280;6549;53.128;8.182;2023-05-12T03:51:39;101522.00;;;10.62;100.00
12969;BME280;6549;53.128;8.182;2023-05-12T03:54:40;101518.91;;;10.67;100.00
12969;BME280;6549;53.128;8.182;2023-05-12T03:57:40;101519.00;;;10.70;100.00
12969;BME280;6549;53.128;8.182;2023-05-12T04:00:41;101544.28;;;10.79;100.00
12969;BME280;6549;53.128;8.182;2023-05-12T04:03:41;101527.84;;;10.83;100.00
12969;BME280;6549;53.128;8.182;2023-05-12T04:06:42;101528.63;;;10.84;100.00
12969;BME280;6549;53.128;8.182;2023-05-12T04:09:42;101531.44;;;10.87;100.00
12969;BME280;6549;53.128;8.182;2023-05-12T04:12:46;101543.69;;;10.93;100.00
12969;BME280;6549;53.128;8.182;2023-05-12T04:15:46;101535.84;;;10.92;100.00
12969;BME280;6549;53.128;8.182;2023-05-12T04:18:46;101548.84;;;10.95;100.00
12969;BME280;6549;53.128;8.182;2023-05-12T04:21:48;101545.81;;;11.03;100.00
12969;BME280;6549;53.128;8.182;2023-05-12T04:24:49;101556.84;;;11.03;100.00
12969;BME280;6549;53.128;8.182;2023-05-12T04:27:49;101557.13;;;10.98;100.00
12969;BME280;6549;53.128;8.182;2023-05-12T04:30:50;101553.66;;;11.01;100.00
12969;BME280;6549;53.128;8.182;2023-05-12T04:33:50;101560.38;;;11.04;100.00
12969;BME280;6549;53.128;8.182;2023-05-12T04:36:51;101558.13;;;11.09;100.00
12969;BME280;6549;53.128;8.182;2023-05-12T04:39:51;101568.00;;;11.14;100.00
12969;BME280;6549;53.128;8.182;2023-05-12T04:42:52;101574.75;;;11.20;100.00
12969;BME280;6549;53.128;8.182;2023-05-12T04:45:52;101589.75;;;11.22;100.00
12969;BME280;6549;53.128;8.182;2023-05-12T04:48:54;101584.34;;;11.30;100.00
12969;BME280;6549;53.128;8.182;2023-05-12T04:51:54;101590.28;;;11.32;100.00
12969;BME280;6549;53.128;8.182;2023-05-12T04:54:55;101593.44;;;11.34;100.00
12969;BME280;6549;53.128;8.182;2023-05-12T04:57:55;101591.53;;;11.38;100.00
12969;BME280;6549;53.128;8.182;2023-05-12T05:00:55;101605.00;;;11.43;100.00
12969;BME280;6549;53.128;8.182;2023-05-12T05:03:56;101600.34;;;11.47;100.00
12969;BME280;6549;53.128;8.182;2023-05-12T05:06:56;101613.41;;;11.53;100.00
12969;BME280;6549;53.128;8.182;2023-05-12T05:09:56;101609.91;;;11.56;100.00
12969;BME280;6549;53.128;8.182;2023-05-12T05:12:57;101609.19;;;11.59;100.00
12969;BME280;6549;53.128;8.182;2023-05-12T05:15:57;101616.31;;;11.64;100.00
12969;BME280;6549;53.128;8.182;2023-05-12T05:18:57;101627.00;;;11.69;100.00
12969;BME280;6549;53.128;8.182;2023-05-12T05:21:58;101631.81;;;11.72;100.00
12969;BME280;6549;53.128;8.182;2023-05-12T05:24:58;101633.47;;;11.77;100.00
12969;BME280;6549;53.128;8.182;2023-05-12T05:27:58;101638.56;;;11.78;100.00
12969;BME280;6549;53.128;8.182;2023-05-12T05:30:59;101641.44;;;11.85;100.00
12969;BME280;6549;53.128;8.182;2023-05-12T05:33:59;101648.53;;;11.86;100.00
12969;BME280;6549;53.128;8.182;2023-05-12T05:36:59;101650.13;;;11.87;100.00
12969;BME280;6549;53.128;8.182;2023-05-12T05:40:00;101652.91;;;11.91;100.00
12969;BME280;6549;53.128;8.182;2023-05-12T05:43:00;101645.16;;;12.00;100.00
12969;BME280;6549;53.128;8.182;2023-05-12T05:46:00;101655.91;;;12.08;100.00
12969;BME280;6549;53.128;8.182;2023-05-12T05:49:01;101650.00;;;12.06;100.00
12969;BME280;6549;53.128;8.182;2023-05-12T05:52:01;101650.50;;;12.15;100.00
12969;BME280;6549;53.128;8.182;2023-05-12T05:55:01;101645.50;;;12.25;100.00
12969;BME280;6549;53.128;8.182;2023-05-12T05:58:02;101651.91;;;12.36;100.00
12969;BME280;6549;53.128;8.182;2023-05-12T06:01:03;101658.03;;;12.52;100.00
12969;BME280;6549;53.128;8.182;2023-05-12T06:04:03;101656.97;;;12.64;100.00
12969;BME280;6549;53.128;8.182;2023-05-12T06:07:03;101663.00;;;12.76;100.00
12969;BME280;6549;53.128;8.182;2023-05-12T06:10:05;101664.34;;;12.89;100.00
12969;BME280;6549;53.128;8.182;2023-05-12T06:13:05;101669.13;;;12.96;100.00
12969;BME280;6549;53.128;8.182;2023-05-12T06:16:06;101661.38;;;13.09;100.00
12969;BME280;6549;53.128;8.182;2023-05-12T06:19:07;101667.44;;;13.25;100.00
12969;BME280;6549;53.128;8.182;2023-05-12T06:22:07;101665.50;;;13.29;100.00
12969;BME280;6549;53.128;8.182;2023-05-12T06:25:07;101661.25;;;13.38;100.00
12969;BME280;6549;53.128;8.182;2023-05-12T06:28:08;101660.13;;;13.46;100.00
12969;BME280;6549;53.128;8.182;2023-05-12T06:31:08;101663.31;;;13.48;100.00
12969;BME280;6549;53.128;8.182;2023-05-12T06:34:09;101664.81;;;13.39;100.00
12969;BME280;6549;53.128;8.182;2023-05-12T06:37:09;101661.28;;;13.42;100.00
12969;BME280;6549;53.128;8.182;2023-05-12T06:40:10;101661.75;;;13.51;100.00
12969;BME280;6549;53.128;8.182;2023-05-12T06:43:10;101662.28;;;13.67;100.00
12969;BME280;6549;53.128;8.182;2023-05-12T06:46:11;101667.81;;;13.71;100.00
12969;BME280;6549;53.128;8.182;2023-05-12T06:49:11;101675.00;;;13.86;100.00
12969;BME280;6549;53.128;8.182;2023-05-12T06:52:11;101672.31;;;13.97;100.00
12969;BME280;6549;53.128;8.182;2023-05-12T06:55:11;101666.00;;;14.03;100.00
12969;BME280;6549;53.128;8.182;2023-05-12T06:58:12;101671.63;;;14.14;100.00
12969;BME280;6549;53.128;8.182;2023-05-12T07:01:12;101680.72;;;14.21;100.00
12969;BME280;6549;53.128;8.182;2023-05-12T07:04:12;101683.16;;;14.33;100.00
12969;BME280;6549;53.128;8.182;2023-05-12T07:07:13;101674.47;;;14.31;100.00
12969;BME280;6549;53.128;8.182;2023-05-12T07:10:13;101688.75;;;14.37;100.00
12969;BME280;6549;53.128;8.182;2023-05-12T07:13:13;101696.25;;;14.47;100.00
12969;BME280;6549;53.128;8.182;2023-05-12T07:16:15;101682.44;;;14.47;100.00
12969;BME280;6549;53.128;8.182;2023-05-12T07:19:15;101677.75;;;14.58;100.00
12969;BME280;6549;53.128;8.182;2023-05-12T07:22:16;101683.66;;;14.57;100.00
12969;BME280;6549;53.128;8.182;2023-05-12T07:25:16;101686.09;;;14.69;100.00
12969;BME280;6549;53.128;8.182;2023-05-12T07:28:17;101681.78;;;14.96;100.00
12969;BME280;6549;53.128;8.182;2023-05-12T07:31:17;101689.31;;;15.03;100.00
12969;BME280;6549;53.128;8.182;2023-05-12T07:34:17;101683.81;;;15.17;100.00
12969;BME280;6549;53.128;8.182;2023-05-12T07:37:18;101677.47;;;15.45;100.00
12969;BME280;6549;53.128;8.182;2023-05-12T07:40:18;101689.38;;;15.66;100.00
12969;BME280;6549;53.128;8.182;2023-05-12T07:43:18;101685.75;;;16.01;100.00
12969;BME280;6549;53.128;8.182;2023-05-12T07:46:19;101704.59;;;16.59;100.00
12969;BME280;6549;53.128;8.182;2023-05-12T07:49:19;101704.72;;;17.04;100.00
12969;BME280;6549;53.128;8.182;2023-05-12T07:52:20;101697.59;;;17.55;100.00
12969;BME280;6549;53.128;8.182;2023-05-12T07:55:21;101697.16;;;18.04;100.00
12969;BME280;6549;53.128;8.182;2023-05-12T07:58:22;101691.34;;;18.59;100.00
12969;BME280;6549;53.128;8.182;2023-05-12T08:01:22;101694.16;;;18.56;100.00
12969;BME280;6549;53.128;8.182;2023-05-12T08:04:23;101699.44;;;18.77;100.00
12969;BME280;6549;53.128;8.182;2023-05-12T08:07:23;101704.94;;;18.84;100.00
12969;BME280;6549;53.128;8.182;2023-05-12T08:10:23;101707.16;;;18.96;100.00
12969;BME280;6549;53.128;8.182;2023-05-12T08:13:28;101705.16;;;19.23;100.00
12969;BME280;6549;53.128;8.182;2023-05-12T08:16:28;101699.66;;;19.43;100.00
12969;BME280;6549;53.128;8.182;2023-05-12T08:19:29;101694.78;;;19.51;100.00
12969;BME280;6549;53.128;8.182;2023-05-12T08:22:30;101708.97;;;19.60;100.00
12969;BME280;6549;53.128;8.182;2023-05-12T08:25:30;101705.91;;;19.74;100.00
12969;BME280;6549;53.128;8.182;2023-05-12T08:28:30;101708.91;;;20.06;100.00
12969;BME280;6549;53.128;8.182;2023-05-12T08:31:31;101707.25;;;19.66;100.00
12969;BME280;6549;53.128;8.182;2023-05-12T08:34:31;101706.81;;;19.44;100.00
12969;BME280;6549;53.128;8.182;2023-05-12T08:37:32;101714.50;;;19.10;100.00
12969;BME280;6549;53.128;8.182;2023-05-12T08:43:55;101712.31;;;19.94;100.00
12969;BME280;6549;53.128;8.182;2023-05-12T08:46:57;101712.38;;;20.34;100.00
12969;BME280;6549;53.128;8.182;2023-05-12T08:50:00;101718.31;;;20.75;100.00
12969;BME280;6549;53.128;8.182;2023-05-12T08:53:02;101713.78;;;20.81;100.00
12969;BME280;6549;53.128;8.182;2023-05-12T08:56:05;101717.06;;;20.76;100.00
12969;BME280;6549;53.128;8.182;2023-05-12T08:59:08;101723.31;;;21.20;100.00
12969;BME280;6549;53.128;8.182;2023-05-12T09:02:09;101729.59;;;20.88;100.00
12969;BME280;6549;53.128;8.182;2023-05-12T09:05:10;101731.44;;;20.39;100.00
12969;BME280;6549;53.128;8.182;2023-05-12T09:08:11;101731.38;;;20.19;100.00
12969;BME280;6549;53.128;8.182;2023-05-12T09:11:12;101730.50;;;20.02;100.00
12969;BME280;6549;53.128;8.182;2023-05-12T09:14:17;101722.38;;;19.88;100.00
12969;BME280;6549;53.128;8.182;2023-05-12T09:17:21;101730.69;;;19.92;100.00
12969;BME280;6549;53.128;8.182;2023-05-12T09:20:21;101735.19;;;20.09;100.00
12969;BME280;6549;53.128;8.182;2023-05-12T09:23:24;101729.69;;;20.45;100.00
12969;BME280;6549;53.128;8.182;2023-05-12T09:26:26;101731.91;;;20.73;100.00
12969;BME280;6549;53.128;8.182;2023-05-12T09:29:27;101732.50;;;21.00;100.00
12969;BME280;6549;53.128;8.182;2023-05-12T09:32:34;101736.94;;;20.62;100.00
12969;BME280;6549;53.128;8.182;2023-05-12T09:35:37;101739.28;;;20.63;100.00
12969;BME280;6549;53.128;8.182;2023-05-12T09:38:38;101736.91;;;20.82;100.00
12969;BME280;6549;53.128;8.182;2023-05-12T09:41:39;101738.50;;;20.83;100.00
12969;BME280;6549;53.128;8.182;2023-05-12T09:44:40;101739.47;;;20.92;100.00
12969;BME280;6549;53.128;8.182;2023-05-12T09:47:41;101741.69;;;21.37;100.00
12969;BME280;6549;53.128;8.182;2023-05-12T09:50:42;101737.19;;;21.88;100.00
12969;BME280;6549;53.128;8.182;2023-05-12T09:53:43;101732.47;;;22.01;100.00
12969;BME280;6549;53.128;8.182;2023-05-12T09:56:45;101737.50;;;22.35;98.59
12969;BME280;6549;53.128;8.182;2023-05-12T09:59:46;101742.69;;;22.36;88.23
12969;BME280;6549;53.128;8.182;2023-05-12T10:02:48;101739.25;;;22.58;84.60
12969;BME280;6549;53.128;8.182;2023-05-12T10:05:52;101750.81;;;23.14;80.19
12969;BME280;6549;53.128;8.182;2023-05-12T10:09:02;101751.78;;;22.69;75.30
12969;BME280;6549;53.128;8.182;2023-05-12T10:12:03;101748.78;;;22.48;81.90
12969;BME280;6549;53.128;8.182;2023-05-12T10:15:06;101744.13;;;22.28;78.41
12969;BME280;6549;53.128;8.182;2023-05-12T10:18:08;101740.66;;;22.66;80.24
12969;BME280;6549;53.128;8.182;2023-05-12T10:21:09;101750.22;;;22.94;80.32
12969;BME280;6549;53.128;8.182;2023-05-12T10:24:13;101749.78;;;23.33;76.57
12969;BME280;6549;53.128;8.182;2023-05-12T10:27:15;101755.88;;;23.32;75.67
12969;BME280;6549;53.128;8.182;2023-05-12T10:30:16;101745.53;;;23.66;74.92
12969;BME280;6549;53.128;8.182;2023-05-12T10:33:16;101745.91;;;23.90;71.57
12969;BME280;6549;53.128;8.182;2023-05-12T10:36:17;101749.31;;;23.72;60.81
12969;BME280;6549;53.128;8.182;2023-05-12T10:39:18;101749.91;;;23.67;65.05
12969;BME280;6549;53.128;8.182;2023-05-12T10:42:22;101749.91;;;23.55;61.54
12969;BME280;6549;53.128;8.182;2023-05-12T10:45:24;101750.13;;;23.60;65.18
12969;BME280;6549;53.128;8.182;2023-05-12T10:48:25;101752.06;;;23.51;59.05
12969;BME280;6549;53.128;8.182;2023-05-12T10:51:45;101752.28;;;23.44;59.66
12969;BME280;6549;53.128;8.182;2023-05-12T10:54:46;101742.25;;;23.81;60.65
12969;BME280;6549;53.128;8.182;2023-05-12T10:57:49;101748.13;;;23.95;65.12
12969;BME280;6549;53.128;8.182;2023-05-12T11:00:50;101751.81;;;23.70;52.80
12969;BME280;6549;53.128;8.182;2023-05-12T11:03:51;101744.56;;;23.48;50.73
12969;BME280;6549;53.128;8.182;2023-05-12T11:06:58;101739.94;;;23.16;48.99
12969;BME280;6549;53.128;8.182;2023-05-12T11:10:03;101744.28;;;23.42;50.84
12969;BME280;6549;53.128;8.182;2023-05-12T11:13:03;101742.25;;;23.81;49.46
12969;BME280;6549;53.128;8.182;2023-05-12T11:16:04;101743.53;;;23.54;47.80
12969;BME280;6549;53.128;8.182;2023-05-12T11:19:04;101742.53;;;23.23;47.91
12969;BME280;6549;53.128;8.182;2023-05-12T11:22:06;101743.81;;;23.82;50.57
12969;BME280;6549;53.128;8.182;2023-05-12T11:25:10;101745.56;;;23.54;50.01
12969;BME280;6549;53.128;8.182;2023-05-12T11:28:11;101745.63;;;23.76;51.33
12969;BME280;6549;53.128;8.182;2023-05-12T11:31:17;101741.44;;;24.27;50.17
12969;BME280;6549;53.128;8.182;2023-05-12T11:34:22;101744.66;;;24.38;47.32
12969;BME280;6549;53.128;8.182;2023-05-12T11:37:23;101742.72;;;24.35;44.91
12969;BME280;6549;53.128;8.182;2023-05-12T11:40:23;101748.22;;;24.39;44.85
12969;BME280;6549;53.128;8.182;2023-05-12T11:43:23;101742.09;;;24.84;46.23
12969;BME280;6549;53.128;8.182;2023-05-12T11:46:28;101754.84;;;24.97;46.30
12969;BME280;6549;53.128;8.182;2023-05-12T11:49:30;101754.38;;;24.12;45.64
12969;BME280;6549;53.128;8.182;2023-05-12T11:52:30;101748.53;;;24.19;45.81
12969;BME280;6549;53.128;8.182;2023-05-12T11:55:31;101753.81;;;24.17;45.06
12969;BME280;6549;53.128;8.182;2023-05-12T11:58:33;101741.22;;;23.87;47.09
12969;BME280;6549;53.128;8.182;2023-05-12T12:01:43;101752.41;;;24.00;47.36
12969;BME280;6549;53.128;8.182;2023-05-12T12:04:43;101749.19;;;23.89;48.58
12969;BME280;6549;53.128;8.182;2023-05-12T12:07:44;101749.25;;;24.54;50.30
12969;BME280;6549;53.128;8.182;2023-05-12T12:10:45;101761.31;;;23.86;49.58
12969;BME280;6549;53.128;8.182;2023-05-12T12:13:49;101754.19;;;23.34;49.95
12969;BME280;6549;53.128;8.182;2023-05-12T12:16:57;101751.34;;;24.19;47.68
12969;BME280;6549;53.128;8.182;2023-05-12T12:19:57;101756.59;;;23.83;48.07
12969;BME280;6549;53.128;8.182;2023-05-12T12:22:57;101754.06;;;23.63;46.99
12969;BME280;6549;53.128;8.182;2023-05-12T12:25:58;101766.50;;;24.09;46.82
12969;BME280;6549;53.128;8.182;2023-05-12T12:28:58;101760.00;;;24.46;44.65
12969;BME280;6549;53.128;8.182;2023-05-12T12:31:58;101765.25;;;23.88;46.25
12969;BME280;6549;53.128;8.182;2023-05-12T12:34:59;101760.44;;;24.23;45.25
12969;BME280;6549;53.128;8.182;2023-05-12T12:38:01;101760.22;;;24.61;38.13
12969;BME280;6549;53.128;8.182;2023-05-12T12:41:02;101753.81;;;24.82;42.66
12969;BME280;6549;53.128;8.182;2023-05-12T12:44:03;101754.50;;;24.86;41.59
12969;BME280;6549;53.128;8.182;2023-05-12T12:47:03;101739.22;;;25.36;45.34
12969;BME280;6549;53.128;8.182;2023-05-12T12:50:07;101742.72;;;25.10;40.21
12969;BME280;6549;53.128;8.182;2023-05-12T12:53:09;101746.91;;;24.96;39.75
12969;BME280;6549;53.128;8.182;2023-05-12T12:56:10;101752.31;;;23.91;41.80
12969;BME280;6549;53.128;8.182;2023-05-12T12:59:10;101745.75;;;23.34;42.87
12969;BME280;6549;53.128;8.182;2023-05-12T13:02:11;101745.19;;;22.89;44.65
12969;BME280;6549;53.128;8.182;2023-05-12T13:05:11;101752.72;;;22.63;47.34
12969;BME280;6549;53.128;8.182;2023-05-12T13:08:11;101748.19;;;22.40;47.15
12969;BME280;6549;53.128;8.182;2023-05-12T13:11:12;101755.47;;;22.37;50.27
12969;BME280;6549;53.128;8.182;2023-05-12T13:14:13;101757.19;;;22.19;47.74
12969;BME280;6549;53.128;8.182;2023-05-12T13:17:13;101752.47;;;22.16;48.42
12969;BME280;6549;53.128;8.182;2023-05-12T13:20:14;101741.59;;;22.18;48.40
12969;BME280;6549;53.128;8.182;2023-05-12T13:23:15;101742.69;;;22.36;48.02
12969;BME280;6549;53.128;8.182;2023-05-12T13:26:15;101742.97;;;22.55;48.01
12969;BME280;6549;53.128;8.182;2023-05-12T13:29:15;101739.81;;;23.07;48.49
12969;BME280;6549;53.128;8.182;2023-05-12T13:32:15;101741.28;;;23.11;46.58
12969;BME280;6549;53.128;8.182;2023-05-12T13:35:16;101743.75;;;23.47;44.88
12969;BME280;6549;53.128;8.182;2023-05-12T13:38:16;101742.06;;;23.62;45.79
12969;BME280;6549;53.128;8.182;2023-05-12T13:41:17;101741.63;;;23.26;45.16
12969;BME280;6549;53.128;8.182;2023-05-12T13:44:17;101732.78;;;23.27;43.68
12969;BME280;6549;53.128;8.182;2023-05-12T13:47:18;101732.31;;;23.16;46.00
12969;BME280;6549;53.128;8.182;2023-05-12T13:50:18;101726.81;;;23.13;45.31
12969;BME280;6549;53.128;8.182;2023-05-12T13:53:19;101731.41;;;23.07;44.55
12969;BME280;6549;53.128;8.182;2023-05-12T13:56:19;101729.75;;;22.97;45.00
12969;BME280;6549;53.128;8.182;2023-05-12T13:59:20;101727.06;;;23.44;45.31
12969;BME280;6549;53.128;8.182;2023-05-12T14:02:20;101721.59;;;24.09;44.69
12969;BME280;6549;53.128;8.182;2023-05-12T14:05:21;101730.25;;;24.36;42.02
12969;BME280;6549;53.128;8.182;2023-05-12T14:08:21;101728.88;;;24.63;41.23
12969;BME280;6549;53.128;8.182;2023-05-12T14:11:21;101720.16;;;24.91;40.88
12969;BME280;6549;53.128;8.182;2023-05-12T14:14:22;101718.09;;;24.92;38.98
12969;BME280;6549;53.128;8.182;2023-05-12T14:17:23;101727.53;;;24.98;37.55
12969;BME280;6549;53.128;8.182;2023-05-12T14:20:23;101721.97;;;24.85;35.94
12969;BME280;6549;53.128;8.182;2023-05-12T14:23:23;101731.81;;;24.59;37.30
12969;BME280;6549;53.128;8.182;2023-05-12T14:26:24;101725.31;;;24.71;37.95
12969;BME280;6549;53.128;8.182;2023-05-12T14:29:25;101722.41;;;24.31;41.88
12969;BME280;6549;53.128;8.182;2023-05-12T14:32:25;101735.22;;;24.32;40.96
12969;BME280;6549;53.128;8.182;2023-05-12T14:35:25;101737.38;;;24.28;41.34
12969;BME280;6549;53.128;8.182;2023-05-12T14:38:26;101737.00;;;23.70;41.62
12969;BME280;6549;53.128;8.182;2023-05-12T14:41:26;101739.47;;;23.30;42.94
12969;BME280;6549;53.128;8.182;2023-05-12T14:44:27;101738.91;;;22.84;44.20
12969;BME280;6549;53.128;8.182;2023-05-12T14:47:27;101729.69;;;22.30;46.85
12969;BME280;6549;53.128;8.182;2023-05-12T14:50:28;101733.56;;;22.20;47.37
12969;BME280;6549;53.128;8.182;2023-05-12T14:53:28;101737.31;;;22.13;47.57
12969;BME280;6549;53.128;8.182;2023-05-12T14:56:29;101743.91;;;22.07;49.31
12969;BME280;6549;53.128;8.182;2023-05-12T14:59:29;101739.38;;;21.97;48.21
12969;BME280;6549;53.128;8.182;2023-05-12T15:02:29;101743.41;;;21.95;48.37
12969;BME280;6549;53.128;8.182;2023-05-12T15:05:30;101747.88;;;21.93;47.49
12969;BME280;6549;53.128;8.182;2023-05-12T15:08:31;101741.56;;;21.89;48.66
12969;BME280;6549;53.128;8.182;2023-05-12T15:11:31;101748.03;;;21.86;48.09
12969;BME280;6549;53.128;8.182;2023-05-12T15:14:31;101744.97;;;21.80;48.91
12969;BME280;6549;53.128;8.182;2023-05-12T15:17:32;101746.19;;;21.95;50.24
12969;BME280;6549;53.128;8.182;2023-05-12T15:20:33;101742.75;;;22.20;49.46
12969;BME280;6549;53.128;8.182;2023-05-12T15:23:33;101743.38;;;22.40;46.44
12969;BME280;6549;53.128;8.182;2023-05-12T15:26:33;101738.84;;;22.59;45.29
12969;BME280;6549;53.128;8.182;2023-05-12T15:29:37;101732.25;;;22.66;46.88
12969;BME280;6549;53.128;8.182;2023-05-12T15:32:39;101736.66;;;22.79;47.05
12969;BME280;6549;53.128;8.182;2023-05-12T15:35:40;101742.50;;;22.98;44.54
12969;BME280;6549;53.128;8.182;2023-05-12T15:38:40;101736.91;;;23.10;44.67
12969;BME280;6549;53.128;8.182;2023-05-12T15:41:42;101738.28;;;23.18;43.51
12969;BME280;6549;53.128;8.182;2023-05-12T15:44:42;101733.44;;;23.19;44.17
12969;BME280;6549;53.128;8.182;2023-05-12T15:47:42;101737.78;;;23.20;41.61
12969;BME280;6549;53.128;8.182;2023-05-12T15:50:43;101742.41;;;23.26;42.70
12969;BME280;6549;53.128;8.182;2023-05-12T15:53:43;101739.59;;;23.26;40.64
12969;BME280;6549;53.128;8.182;2023-05-12T15:56:47;101738.03;;;23.13;39.60